createdAt,value
2023-02-14T00:00:43.705Z,86.61
2023-02-14T00:01:43.685Z,86.61
2023-02-14T00:02:43.813Z,87.03
2023-02-14T00:03:43.636Z,87.13
2023-02-14T00:04:43.711Z,87.03
2023-02-14T00:05:43.652Z,86.61
2023-02-14T00:06:43.635Z,86.41
2023-02-14T00:07:43.600Z,86.51
2023-02-14T00:08:43.590Z,86.09
2023-02-14T00:09:43.578Z,86.24
2023-02-14T00:10:43.569Z,86.13
2023-02-14T00:11:43.611Z,86.13
2023-02-14T00:12:43.543Z,86.03
2023-02-14T00:13:43.530Z,86.13
2023-02-14T00:14:43.526Z,86.34
2023-02-14T00:15:43.695Z,86.44
2023-02-14T00:16:43.497Z,86.24
2023-02-14T00:17:43.511Z,86.03
2023-02-14T00:18:43.477Z,85.51
2023-02-14T00:19:43.460Z,85.96
2023-02-14T00:20:43.447Z,86.34
2023-02-14T00:21:43.438Z,86.03
2023-02-14T00:22:43.428Z,85.96
2023-02-14T00:23:43.429Z,86.24
2023-02-14T00:24:43.423Z,86.03
2023-02-14T00:25:43.388Z,85.82
2023-02-14T00:26:43.391Z,85.65
2023-02-14T00:27:43.388Z,85.65
2023-02-14T00:28:43.391Z,85.55
2023-02-14T00:29:43.360Z,85.75
2023-02-14T00:30:43.357Z,86.17
2023-02-14T00:31:43.358Z,86.07
2023-02-14T00:32:43.320Z,85.96
2023-02-14T00:33:43.297Z,85.96
2023-02-14T00:34:43.339Z,85.86
2023-02-14T00:35:43.280Z,86.07
2023-02-14T00:36:43.272Z,85.86
2023-02-14T00:37:43.249Z,86.07
2023-02-14T00:38:43.240Z,86.07
2023-02-14T00:39:43.241Z,85.75
2023-02-14T00:40:43.260Z,86.17
2023-02-14T00:41:43.212Z,85.96
2023-02-14T00:42:43.199Z,85.75
2023-02-14T00:43:43.181Z,85.75
2023-02-14T00:44:43.173Z,85.65
2023-02-14T00:45:43.197Z,85.90
2023-02-14T00:46:43.216Z,86.52
2023-02-14T00:47:43.135Z,87.04
2023-02-14T00:48:43.132Z,87.46
2023-02-14T00:49:43.197Z,87.56
2023-02-14T00:50:43.120Z,87.25
2023-02-14T00:51:43.103Z,87.01
2023-02-14T00:52:43.112Z,86.52
2023-02-14T00:53:43.073Z,86.49
2023-02-14T00:54:43.061Z,86.69
2023-02-14T00:55:43.050Z,86.27
2023-02-14T00:56:43.042Z,86.27
2023-02-14T00:57:43.061Z,86.17
2023-02-14T00:58:43.011Z,85.96
2023-02-14T00:59:43.017Z,85.80
2023-02-14T01:00:43.025Z,86.21
2023-02-14T01:01:42.981Z,86.59
2023-02-14T01:02:43.012Z,86.27
2023-02-14T01:03:42.985Z,86.07
2023-02-14T01:04:42.950Z,85.75
2023-02-14T01:05:42.944Z,85.80
2023-02-14T01:06:42.939Z,85.69
2023-02-14T01:07:42.935Z,85.80
2023-02-14T01:08:42.904Z,87.04
2023-02-14T01:09:42.912Z,87.66
2023-02-14T01:10:42.871Z,88.29
2023-02-14T01:11:42.870Z,88.71
2023-02-14T01:12:42.870Z,88.15
2023-02-14T01:13:42.856Z,87.46
2023-02-14T01:14:42.834Z,87.01
2023-02-14T01:15:42.841Z,86.94
2023-02-14T01:16:42.865Z,86.94
2023-02-14T01:17:42.813Z,86.94
2023-02-14T01:18:42.804Z,86.52
2023-02-14T01:19:42.789Z,87.04
2023-02-14T01:20:42.802Z,87.25
2023-02-14T01:21:42.753Z,86.94
2023-02-14T01:22:42.751Z,86.63
2023-02-14T01:23:42.745Z,86.63
2023-02-14T01:24:42.713Z,86.52
2023-02-14T01:25:42.712Z,86.63
2023-02-14T01:26:42.753Z,86.63
2023-02-14T01:27:42.707Z,86.73
2023-02-14T01:28:42.681Z,86.32
2023-02-14T01:29:42.681Z,86.32
2023-02-14T01:30:42.693Z,87.50
2023-02-14T01:31:42.743Z,88.54
2023-02-14T01:32:42.672Z,88.60
2023-02-14T01:33:42.634Z,87.98
2023-02-14T01:34:42.615Z,87.35
2023-02-14T01:35:42.592Z,87.04
2023-02-14T01:36:42.605Z,86.94
2023-02-14T01:37:42.589Z,87.25
2023-02-14T01:38:42.597Z,87.46
2023-02-14T01:39:42.562Z,87.29
2023-02-14T01:40:42.633Z,88.23
2023-02-14T01:41:42.539Z,89.37
2023-02-14T01:42:42.519Z,90.00
2023-02-14T01:43:42.525Z,90.41
2023-02-14T01:44:42.555Z,90.31
2023-02-14T01:45:42.578Z,90.20
2023-02-14T01:46:42.487Z,89.75
2023-02-14T01:47:42.490Z,89.33
2023-02-14T01:48:42.459Z,89.02
2023-02-14T01:49:42.478Z,88.71
2023-02-14T01:50:42.460Z,88.09
2023-02-14T01:51:42.419Z,87.56
2023-02-14T01:52:42.409Z,87.50
2023-02-14T01:53:42.419Z,87.92
2023-02-14T01:54:42.388Z,87.81
2023-02-14T01:55:42.401Z,87.71
2023-02-14T01:56:42.368Z,87.92
2023-02-14T01:57:42.353Z,88.29
2023-02-14T01:58:42.352Z,87.88
2023-02-14T01:59:42.333Z,87.35
2023-02-14T02:00:42.407Z,86.88
2023-02-14T02:01:42.407Z,87.75
2023-02-14T02:02:42.339Z,88.79
2023-02-14T02:03:42.296Z,89.62
2023-02-14T02:04:42.290Z,89.73
2023-02-14T02:05:42.380Z,89.83
2023-02-14T02:06:42.289Z,89.83
2023-02-14T02:07:42.292Z,89.73
2023-02-14T02:08:42.242Z,89.48
2023-02-14T02:09:42.230Z,88.96
2023-02-14T02:10:42.234Z,88.64
2023-02-14T02:11:42.230Z,88.12
2023-02-14T02:12:42.224Z,88.02
2023-02-14T02:13:42.206Z,88.33
2023-02-14T02:14:42.172Z,88.12
2023-02-14T02:15:42.153Z,87.71
2023-02-14T02:16:42.190Z,87.50
2023-02-14T02:17:42.136Z,87.40
2023-02-14T02:18:42.140Z,87.40
2023-02-14T02:19:42.111Z,87.02
2023-02-14T02:20:42.109Z,87.02
2023-02-14T02:21:42.090Z,87.43
2023-02-14T02:22:42.121Z,87.79
2023-02-14T02:23:42.074Z,89.04
2023-02-14T02:24:42.087Z,90.08
2023-02-14T02:25:42.040Z,90.60
2023-02-14T02:26:42.061Z,91.12
2023-02-14T02:27:42.036Z,90.87
2023-02-14T02:28:42.026Z,90.66
2023-02-14T02:29:42.038Z,90.14
2023-02-14T02:30:42.247Z,90.14
2023-02-14T02:31:42.085Z,90.35
2023-02-14T02:32:41.962Z,89.94
2023-02-14T02:33:41.954Z,90.56
2023-02-14T02:34:41.955Z,90.25
2023-02-14T02:35:41.962Z,89.94
2023-02-14T02:36:41.932Z,89.62
2023-02-14T02:37:42.019Z,89.31
2023-02-14T02:38:41.912Z,89.41
2023-02-14T02:39:41.874Z,89.62
2023-02-14T02:40:41.893Z,89.41
2023-02-14T02:41:41.865Z,89.31
2023-02-14T02:42:41.852Z,89.62
2023-02-14T02:43:41.878Z,89.94
2023-02-14T02:44:42.774Z,89.62
2023-02-14T02:45:41.821Z,90.04
2023-02-14T02:46:41.861Z,90.04
2023-02-14T02:47:41.790Z,89.94
2023-02-14T02:48:41.782Z,89.83
2023-02-14T02:49:41.771Z,89.62
2023-02-14T02:50:41.799Z,89.62
2023-02-14T02:51:41.772Z,89.20
2023-02-14T02:52:41.786Z,89.10
2023-02-14T02:53:41.736Z,89.45
2023-02-14T02:54:41.715Z,89.56
2023-02-14T02:55:41.712Z,89.45
2023-02-14T02:56:41.694Z,89.45
2023-02-14T02:57:41.674Z,89.62
2023-02-14T02:58:41.715Z,90.19
2023-02-14T02:59:41.658Z,90.50
2023-02-14T03:00:41.659Z,90.39
2023-02-14T03:01:41.681Z,90.70
2023-02-14T03:02:41.626Z,90.70
2023-02-14T03:03:41.605Z,90.60
2023-02-14T03:04:41.700Z,90.66
2023-02-14T03:05:41.604Z,90.35
2023-02-14T03:06:41.598Z,89.73
2023-02-14T03:07:41.597Z,89.73
2023-02-14T03:08:41.552Z,89.73
2023-02-14T03:09:41.608Z,89.62
2023-02-14T03:10:41.597Z,89.66
2023-02-14T03:11:41.528Z,90.60
2023-02-14T03:12:41.512Z,91.12
2023-02-14T03:13:41.495Z,91.33
2023-02-14T03:14:41.480Z,91.64
2023-02-14T03:15:41.533Z,91.71
2023-02-14T03:16:41.704Z,91.28
2023-02-14T03:17:41.452Z,90.66
2023-02-14T03:18:41.444Z,89.94
2023-02-14T03:19:41.428Z,89.56
2023-02-14T03:20:41.413Z,89.35
2023-02-14T03:21:41.405Z,89.45
2023-02-14T03:22:41.414Z,89.45
2023-02-14T03:23:41.376Z,89.50
2023-02-14T03:24:41.356Z,89.60
2023-02-14T03:25:41.365Z,89.39
2023-02-14T03:26:41.345Z,89.39
2023-02-14T03:27:41.337Z,89.50
2023-02-14T03:28:41.343Z,89.70
2023-02-14T03:29:41.331Z,89.39
2023-02-14T03:30:41.388Z,88.98
2023-02-14T03:31:41.474Z,88.66
2023-02-14T03:32:41.286Z,88.45
2023-02-14T03:33:41.285Z,88.35
2023-02-14T03:34:41.245Z,88.08
2023-02-14T03:35:41.254Z,88.32
2023-02-14T03:36:41.236Z,88.95
2023-02-14T03:37:41.241Z,89.37
2023-02-14T03:38:41.208Z,89.68
2023-02-14T03:39:41.246Z,89.89
2023-02-14T03:40:41.198Z,89.64
2023-02-14T03:41:41.244Z,89.22
2023-02-14T03:42:41.155Z,89.43
2023-02-14T03:43:41.157Z,89.22
2023-02-14T03:44:41.148Z,88.91
2023-02-14T03:45:41.184Z,88.85
2023-02-14T03:46:41.180Z,88.64
2023-02-14T03:47:41.109Z,89.37
2023-02-14T03:48:41.124Z,90.00
2023-02-14T03:49:41.091Z,90.00
2023-02-14T03:50:41.097Z,89.89
2023-02-14T03:51:41.055Z,89.68
2023-02-14T03:52:41.047Z,89.16
2023-02-14T03:53:41.038Z,89.26
2023-02-14T03:54:41.027Z,89.54
2023-02-14T03:55:41.007Z,89.32
2023-02-14T03:56:41.029Z,88.91
2023-02-14T03:57:40.977Z,88.53
2023-02-14T03:58:40.975Z,88.43
2023-02-14T03:59:40.971Z,88.43
2023-02-14T04:00:40.969Z,88.32
2023-02-14T04:01:41.051Z,88.32
2023-02-14T04:02:40.972Z,88.53
2023-02-14T04:03:40.996Z,88.32
2023-02-14T04:04:40.906Z,88.32
2023-02-14T04:05:40.896Z,88.22
2023-02-14T04:06:40.877Z,88.37
2023-02-14T04:07:40.875Z,88.43
2023-02-14T04:08:40.876Z,88.32
2023-02-14T04:09:40.844Z,88.53
2023-02-14T04:10:40.829Z,88.32
2023-02-14T04:11:40.836Z,88.37
2023-02-14T04:12:40.839Z,88.37
2023-02-14T04:13:40.806Z,88.89
2023-02-14T04:14:40.808Z,89.51
2023-02-14T04:15:40.823Z,89.72
2023-02-14T04:16:40.757Z,89.47
2023-02-14T04:17:40.783Z,89.16
2023-02-14T04:18:40.737Z,88.95
2023-02-14T04:19:40.728Z,88.64
2023-02-14T04:20:40.777Z,88.64
2023-02-14T04:21:40.799Z,88.43
2023-02-14T04:22:40.791Z,88.37
2023-02-14T04:23:40.717Z,88.26
2023-02-14T04:24:40.728Z,88.16
2023-02-14T04:25:40.719Z,88.47
2023-02-14T04:26:40.742Z,88.47
2023-02-14T04:27:40.717Z,88.26
2023-02-14T04:28:40.675Z,88.16
2023-02-14T04:29:40.701Z,87.95
2023-02-14T04:30:40.684Z,87.84
2023-02-14T04:31:40.788Z,87.84
2023-02-14T04:32:40.696Z,87.95
2023-02-14T04:33:40.637Z,88.06
2023-02-14T04:34:40.682Z,88.16
2023-02-14T04:35:40.614Z,88.06
2023-02-14T04:36:40.610Z,87.99
2023-02-14T04:37:40.602Z,87.99
2023-02-14T04:38:40.551Z,88.20
2023-02-14T04:39:40.594Z,88.20
2023-02-14T04:40:40.559Z,88.09
2023-02-14T04:41:40.557Z,88.09
2023-02-14T04:42:40.575Z,87.88
2023-02-14T04:43:40.527Z,87.99
2023-02-14T04:44:40.498Z,88.30
2023-02-14T04:45:40.505Z,88.30
2023-02-14T04:46:40.686Z,88.30
2023-02-14T04:47:40.519Z,88.30
2023-02-14T04:48:40.559Z,88.30
2023-02-14T04:49:40.437Z,88.41
2023-02-14T04:50:40.497Z,88.30
2023-02-14T04:51:40.428Z,88.09
2023-02-14T04:52:40.391Z,87.88
2023-02-14T04:53:40.526Z,87.88
2023-02-14T04:54:40.406Z,87.88
2023-02-14T04:55:40.383Z,88.03
2023-02-14T04:56:40.386Z,88.09
2023-02-14T04:57:40.358Z,87.82
2023-02-14T04:58:40.375Z,87.82
2023-02-14T04:59:40.377Z,87.71
2023-02-14T05:00:40.482Z,87.93
2023-02-14T05:01:40.432Z,87.93
2023-02-14T05:02:40.400Z,87.93
2023-02-14T05:03:40.377Z,87.93
2023-02-14T05:04:40.344Z,87.93
2023-02-14T05:05:40.341Z,87.88
2023-02-14T05:06:40.408Z,87.61
2023-02-14T05:07:40.359Z,87.51
2023-02-14T05:08:40.290Z,87.61
2023-02-14T05:09:40.306Z,87.71
2023-02-14T05:10:40.177Z,88.13
2023-02-14T05:11:40.256Z,88.45
2023-02-14T05:12:40.250Z,88.87
2023-02-14T05:13:40.224Z,88.72
2023-02-14T05:14:40.191Z,88.72
2023-02-14T05:15:40.190Z,88.82
2023-02-14T05:16:40.164Z,89.10
2023-02-14T05:17:40.192Z,88.99
2023-02-14T05:18:40.158Z,89.20
2023-02-14T05:19:40.138Z,88.95
2023-02-14T05:20:40.893Z,88.95
2023-02-14T05:21:40.122Z,88.91
2023-02-14T05:22:40.332Z,88.70
2023-02-14T05:23:40.054Z,88.49
2023-02-14T05:24:40.070Z,88.70
2023-02-14T05:25:40.062Z,88.87
2023-02-14T05:26:40.030Z,89.18
2023-02-14T05:27:40.062Z,89.50
2023-02-14T05:28:40.026Z,89.66
2023-02-14T05:29:39.966Z,89.98
2023-02-14T05:30:40.217Z,90.08
2023-02-14T05:31:40.141Z,90.50
2023-02-14T05:32:39.931Z,90.60
2023-02-14T05:33:39.976Z,91.12
2023-02-14T05:34:39.957Z,91.39
2023-02-14T05:35:39.925Z,91.28
2023-02-14T05:36:39.900Z,91.04
2023-02-14T05:37:39.838Z,90.72
2023-02-14T05:38:39.816Z,90.52
2023-02-14T05:39:39.836Z,90.62
2023-02-14T05:40:39.814Z,90.69
2023-02-14T05:41:45.029Z,90.26
2023-02-14T05:42:39.873Z,90.16
2023-02-14T05:43:39.799Z,90.12
2023-02-14T05:44:39.804Z,90.23
2023-02-14T05:45:39.867Z,90.23
2023-02-14T05:46:39.758Z,90.33
2023-02-14T05:47:39.763Z,90.44
2023-02-14T05:48:39.768Z,91.00
2023-02-14T05:49:39.777Z,92.03
2023-02-14T05:50:39.830Z,92.35
2023-02-14T05:51:39.741Z,92.76
2023-02-14T05:52:39.717Z,92.66
2023-02-14T05:53:39.727Z,93.14
2023-02-14T05:54:39.705Z,92.82
2023-02-14T05:55:39.693Z,93.03
2023-02-14T05:56:39.725Z,92.57
2023-02-14T05:57:39.664Z,92.16
2023-02-14T05:58:39.722Z,91.43
2023-02-14T05:59:39.712Z,91.12
2023-02-14T06:00:41.183Z,91.64
2023-02-14T06:01:39.635Z,91.74
2023-02-14T06:02:39.681Z,91.70
2023-02-14T06:03:39.664Z,91.49
2023-02-14T06:04:39.643Z,91.02
2023-02-14T06:05:39.570Z,92.36
2023-02-14T06:06:39.625Z,92.88
2023-02-14T06:07:39.590Z,92.94
2023-02-14T06:08:39.548Z,92.78
2023-02-14T06:09:39.509Z,93.30
2023-02-14T06:10:39.503Z,93.93
2023-02-14T06:11:39.552Z,95.07
2023-02-14T06:12:39.545Z,95.28
2023-02-14T06:13:39.541Z,94.96
2023-02-14T06:14:39.466Z,95.34
2023-02-14T06:15:39.449Z,95.17
2023-02-14T06:16:39.634Z,95.90
2023-02-14T06:17:39.445Z,96.36
2023-02-14T06:18:39.500Z,98.19
2023-02-14T06:19:39.367Z,98.60
2023-02-14T06:20:39.382Z,98.08
2023-02-14T06:21:39.365Z,98.29
2023-02-14T06:22:39.337Z,98.03
2023-02-14T06:23:39.320Z,97.52
2023-02-14T06:24:39.339Z,96.73
2023-02-14T06:25:39.308Z,97.72
2023-02-14T06:26:39.300Z,97.72
2023-02-14T06:27:39.317Z,97.72
2023-02-14T06:28:39.276Z,97.31
2023-02-14T06:29:39.305Z,97.72
2023-02-14T06:30:39.538Z,98.19
2023-02-14T06:31:39.425Z,98.66
2023-02-14T06:32:39.239Z,98.41
2023-02-14T06:33:39.207Z,98.29
2023-02-14T06:34:39.199Z,98.97
2023-02-14T06:35:39.207Z,99.28
2023-02-14T06:36:39.206Z,99.28
2023-02-14T06:37:39.146Z,99.91
2023-02-14T06:38:39.174Z,99.33
2023-02-14T06:39:39.136Z,99.99
2023-02-14T06:40:39.150Z,99.99
2023-02-14T06:41:39.120Z,99.99
2023-02-14T06:42:39.126Z,99.99
2023-02-14T06:43:39.115Z,99.99
2023-02-14T06:44:39.127Z,99.99
2023-02-14T06:45:39.108Z,99.99
2023-02-14T06:46:39.059Z,99.99
2023-02-14T06:47:39.040Z,99.99
2023-02-14T06:48:39.060Z,99.99
2023-02-14T06:49:39.019Z,99.96
2023-02-14T06:50:39.026Z,99.92
2023-02-14T06:51:38.998Z,99.24
2023-02-14T06:52:39.021Z,98.93
2023-02-14T06:53:39.038Z,98.61
2023-02-14T06:54:38.969Z,99.13
2023-02-14T06:55:38.975Z,98.72
2023-02-14T06:56:38.950Z,99.55
2023-02-14T06:57:38.939Z,98.51
2023-02-14T06:58:38.925Z,99.65
2023-02-14T06:59:38.962Z,98.97
2023-02-14T07:00:38.910Z,99.70
2023-02-14T07:01:38.949Z,99.99
2023-02-14T07:02:38.951Z,99.99
2023-02-14T07:03:38.870Z,99.99
2023-02-14T07:04:38.855Z,99.99
2023-02-14T07:05:38.887Z,99.99
2023-02-14T07:06:38.832Z,99.99
2023-02-14T07:07:38.858Z,99.99
2023-02-14T07:08:38.823Z,99.99
2023-02-14T07:09:38.814Z,99.99
2023-02-14T07:10:38.798Z,99.99
2023-02-14T07:11:38.814Z,99.99
2023-02-14T07:12:38.797Z,99.99
2023-02-14T07:13:38.755Z,99.99
2023-02-14T07:14:38.763Z,99.99
2023-02-14T07:15:38.780Z,99.99
2023-02-14T07:16:38.733Z,99.99
2023-02-14T07:17:38.749Z,99.99
2023-02-14T07:18:38.692Z,99.99
2023-02-14T07:19:38.730Z,99.99
2023-02-14T07:20:38.694Z,99.99
2023-02-14T07:21:38.666Z,99.99
2023-02-14T07:22:38.848Z,99.99
2023-02-14T07:23:38.688Z,99.99
2023-02-14T07:24:38.634Z,99.99
2023-02-14T07:25:38.619Z,99.99
2023-02-14T07:26:38.610Z,99.99
2023-02-14T07:27:38.609Z,99.99
2023-02-14T07:28:38.602Z,99.99
2023-02-14T07:29:38.714Z,99.99
2023-02-14T07:30:38.572Z,99.99
2023-02-14T07:31:38.626Z,99.99
2023-02-14T07:32:38.545Z,99.99
2023-02-14T07:33:38.578Z,99.99
2023-02-14T07:34:38.540Z,99.99
2023-02-14T07:35:38.515Z,99.99
2023-02-14T07:36:38.520Z,99.99
2023-02-14T07:37:38.491Z,99.99
2023-02-14T07:38:38.473Z,99.99
2023-02-14T07:39:38.462Z,99.99
2023-02-14T07:40:38.485Z,99.99
2023-02-14T07:41:38.449Z,99.99
2023-02-14T07:42:38.422Z,99.99
2023-02-14T07:43:38.429Z,99.99
2023-02-14T07:44:38.423Z,99.99
2023-02-14T07:45:38.414Z,99.25
2023-02-14T07:46:38.477Z,99.19
2023-02-14T07:47:38.433Z,98.88
2023-02-14T07:48:38.365Z,99.71
2023-02-14T07:49:38.365Z,99.86
2023-02-14T07:50:38.351Z,99.92
2023-02-14T07:51:38.360Z,99.44
2023-02-14T07:52:38.363Z,99.99
2023-02-14T07:53:38.302Z,99.99
2023-02-14T07:54:38.293Z,99.99
2023-02-14T07:55:38.291Z,99.99
2023-02-14T07:56:38.279Z,99.99
2023-02-14T07:57:38.270Z,99.99
2023-02-14T07:58:38.260Z,99.99
2023-02-14T07:59:38.262Z,99.99
2023-02-14T08:00:38.240Z,99.99
2023-02-14T08:01:38.261Z,99.99
2023-02-14T08:02:38.216Z,99.99
2023-02-14T08:03:38.222Z,99.99
2023-02-14T08:04:38.218Z,99.99
2023-02-14T08:05:38.173Z,99.99
2023-02-14T08:06:38.151Z,99.99
2023-02-14T08:07:38.148Z,99.99
2023-02-14T08:08:38.192Z,99.99
2023-02-14T08:09:38.165Z,99.99
2023-02-14T08:10:38.101Z,99.99
2023-02-14T08:11:38.110Z,99.99
2023-02-14T08:12:38.162Z,99.99
2023-02-14T08:13:38.075Z,99.99
2023-02-14T08:14:38.071Z,99.99
2023-02-14T08:15:38.124Z,99.99
2023-02-14T08:16:38.054Z,99.99
2023-02-14T08:17:38.040Z,99.99
2023-02-14T08:18:38.032Z,99.99
2023-02-14T08:19:38.045Z,99.99
2023-02-14T08:20:38.094Z,99.99
2023-02-14T08:21:37.980Z,99.99
2023-02-14T08:22:37.977Z,99.99
2023-02-14T08:23:37.969Z,99.99
2023-02-14T08:24:37.949Z,99.99
2023-02-14T08:25:37.950Z,99.99
2023-02-14T08:26:37.965Z,99.99
2023-02-14T08:27:38.783Z,99.99
2023-02-14T08:28:37.919Z,99.99
2023-02-14T08:29:37.893Z,99.99
2023-02-14T08:30:37.888Z,99.99
2023-02-14T08:31:37.953Z,99.99
2023-02-14T08:32:38.066Z,99.99
2023-02-14T08:33:37.852Z,99.99
2023-02-14T08:34:37.849Z,99.99
2023-02-14T08:35:37.831Z,99.99
2023-02-14T08:36:37.825Z,99.99
2023-02-14T08:37:37.808Z,99.99
2023-02-14T08:38:37.845Z,99.99
2023-02-14T08:39:37.779Z,99.99
2023-02-14T08:40:37.800Z,99.99
2023-02-14T08:41:37.786Z,99.99
2023-02-14T08:42:37.764Z,99.99
2023-02-14T08:43:37.729Z,99.99
2023-02-14T08:44:37.771Z,99.99
2023-02-14T08:45:37.776Z,99.99
2023-02-14T08:46:37.771Z,99.99
2023-02-14T08:47:37.688Z,99.99
2023-02-14T08:48:39.359Z,99.99
2023-02-14T08:49:37.678Z,99.15
2023-02-14T08:50:37.734Z,99.04
2023-02-14T08:51:37.668Z,99.66
2023-02-14T08:52:37.693Z,99.56
2023-02-14T08:53:37.734Z,99.87
2023-02-14T08:54:37.665Z,99.77
2023-02-14T08:55:37.625Z,99.99
2023-02-14T08:56:37.665Z,99.41
2023-02-14T08:57:37.574Z,99.21
2023-02-14T08:58:37.570Z,98.17
2023-02-14T08:59:37.569Z,98.42
2023-02-14T09:00:37.571Z,98.83
2023-02-14T09:01:37.535Z,98.69
2023-02-14T09:02:37.541Z,98.05
2023-02-14T09:03:38.529Z,99.56
2023-02-14T09:04:37.543Z,99.19
2023-02-14T09:05:37.508Z,99.87
2023-02-14T09:06:37.491Z,99.21
2023-02-14T09:07:37.453Z,98.58
2023-02-14T09:08:37.560Z,97.24
2023-02-14T09:09:37.514Z,97.17
2023-02-14T09:10:37.568Z,98.58
2023-02-14T09:11:37.416Z,97.59
2023-02-14T09:12:37.488Z,97.80
2023-02-14T09:13:37.416Z,98.07
2023-02-14T09:14:37.382Z,97.75
2023-02-14T09:15:37.384Z,97.55
2023-02-14T09:16:37.411Z,96.30
2023-02-14T09:17:37.415Z,97.49
2023-02-14T09:18:37.347Z,97.34
2023-02-14T09:19:37.375Z,97.13
2023-02-14T09:20:37.389Z,97.75
2023-02-14T09:21:37.339Z,96.92
2023-02-14T09:22:37.310Z,96.41
2023-02-14T09:23:37.286Z,96.67
2023-02-14T09:24:37.273Z,95.95
2023-02-14T09:25:37.647Z,95.95
2023-02-14T09:26:37.256Z,95.22
2023-02-14T09:27:37.278Z,94.74
2023-02-14T09:28:37.246Z,95.37
2023-02-14T09:29:37.205Z,97.07
2023-02-14T09:30:37.228Z,97.34
2023-02-14T09:31:37.492Z,97.13
2023-02-14T09:32:37.238Z,97.44
2023-02-14T09:33:37.164Z,96.47
2023-02-14T09:34:37.166Z,95.68
2023-02-14T09:35:37.297Z,96.41
2023-02-14T09:36:37.209Z,96.61
2023-02-14T09:37:37.156Z,96.30
2023-02-14T09:38:37.105Z,96.20
2023-02-14T09:39:37.161Z,96.03
2023-02-14T09:40:37.097Z,96.92
2023-02-14T09:41:37.069Z,95.95
2023-02-14T09:42:37.163Z,94.70
2023-02-14T09:43:37.045Z,94.95
2023-02-14T09:44:37.046Z,94.95
2023-02-14T09:45:37.098Z,94.64
2023-02-14T09:46:37.024Z,95.26
2023-02-14T09:47:37.007Z,95.32
2023-02-14T09:48:37.016Z,94.06
2023-02-14T09:49:37.088Z,95.41
2023-02-14T09:50:37.006Z,96.14
2023-02-14T09:51:36.971Z,95.57
2023-02-14T09:52:36.976Z,94.85
2023-02-14T09:53:37.033Z,94.23
2023-02-14T09:54:36.980Z,94.33
2023-02-14T09:55:36.937Z,94.85
2023-02-14T09:56:49.520Z,94.02
2023-02-14T09:57:37.923Z,94.60
2023-02-14T09:58:36.918Z,93.35
2023-02-14T09:59:36.889Z,94.18
2023-02-14T10:00:37.006Z,93.40
2023-02-14T10:01:36.922Z,94.17
2023-02-14T10:02:37.022Z,95.62
2023-02-14T10:03:36.946Z,95.83
2023-02-14T10:04:39.600Z,95.47
2023-02-14T10:05:36.881Z,94.18
2023-02-14T10:06:37.013Z,94.43
2023-02-14T10:07:37.603Z,94.39
2023-02-14T10:08:36.848Z,93.83
2023-02-14T10:09:36.820Z,92.94
2023-02-14T10:10:39.463Z,93.04
2023-02-14T10:11:36.748Z,93.00
2023-02-14T10:12:37.509Z,92.69
2023-02-14T10:13:37.672Z,92.90
2023-02-14T10:14:36.926Z,92.59
2023-02-14T10:15:36.708Z,92.01
2023-02-14T10:16:36.700Z,92.49
2023-02-14T10:17:36.741Z,92.07
2023-02-14T10:18:36.711Z,91.76
2023-02-14T10:19:36.664Z,91.60
2023-02-14T10:20:36.668Z,92.53
2023-02-14T10:21:36.647Z,92.32
2023-02-14T10:22:36.630Z,92.43
2023-02-14T10:23:36.620Z,92.43
2023-02-14T10:24:36.628Z,92.90
2023-02-14T10:25:36.579Z,92.34
2023-02-14T10:26:36.582Z,91.39
2023-02-14T10:27:36.580Z,91.55
2023-02-14T10:28:36.587Z,91.45
2023-02-14T10:29:36.610Z,91.76
2023-02-14T10:30:36.659Z,91.51
2023-02-14T10:31:36.619Z,90.78
2023-02-14T10:32:36.501Z,90.52
2023-02-14T10:33:36.532Z,90.68
2023-02-14T10:34:36.511Z,90.37
2023-02-14T10:35:36.520Z,90.37
2023-02-14T10:36:36.459Z,89.86
2023-02-14T10:37:36.456Z,89.75
2023-02-14T10:38:36.451Z,89.34
2023-02-14T10:39:36.427Z,90.52
2023-02-14T10:40:36.416Z,90.52
2023-02-14T10:41:36.447Z,90.83
2023-02-14T10:42:36.401Z,90.47
2023-02-14T10:43:36.385Z,90.26
2023-02-14T10:44:36.413Z,89.75
2023-02-14T10:45:36.400Z,89.81
2023-02-14T10:46:36.374Z,89.09
2023-02-14T10:47:36.391Z,89.40
2023-02-14T10:48:36.322Z,88.88
2023-02-14T10:49:36.422Z,88.82
2023-02-14T10:50:36.318Z,89.34
2023-02-14T10:51:36.303Z,89.34
2023-02-14T10:52:36.294Z,90.16
2023-02-14T10:53:36.334Z,89.75
2023-02-14T10:54:36.262Z,89.96
2023-02-14T10:55:36.287Z,89.58
2023-02-14T10:56:36.242Z,91.24
2023-02-14T10:57:36.248Z,90.37
2023-02-14T10:58:36.224Z,89.96
2023-02-14T10:59:36.316Z,90.47
2023-02-14T11:00:36.199Z,89.71
2023-02-14T11:01:36.229Z,89.40
2023-02-14T11:02:36.182Z,88.46
2023-02-14T11:03:36.179Z,88.43
2023-02-14T11:04:36.185Z,87.97
2023-02-14T11:05:36.161Z,87.25
2023-02-14T11:06:36.149Z,87.04
2023-02-14T11:07:36.125Z,87.60
2023-02-14T11:08:36.130Z,87.74
2023-02-14T11:09:36.270Z,88.61
2023-02-14T11:10:36.283Z,89.09
2023-02-14T11:11:36.107Z,89.19
2023-02-14T11:12:36.080Z,88.64
2023-02-14T11:13:36.058Z,87.97
2023-02-14T11:14:36.148Z,87.10
2023-02-14T11:15:36.064Z,85.94
2023-02-14T11:16:36.109Z,87.95
2023-02-14T11:17:36.046Z,88.92
2023-02-14T11:18:36.218Z,89.81
2023-02-14T11:19:37.334Z,88.51
2023-02-14T11:20:35.993Z,89.44
2023-02-14T11:21:35.989Z,90.06
2023-02-14T11:22:35.986Z,89.89
2023-02-14T11:23:35.962Z,90.23
2023-02-14T11:24:35.946Z,89.15
2023-02-14T11:25:35.919Z,88.07
2023-02-14T11:26:35.969Z,87.04
2023-02-14T11:27:37.893Z,86.38
2023-02-14T11:28:35.967Z,86.49
2023-02-14T11:29:35.887Z,86.24
2023-02-14T11:30:36.030Z,85.62
2023-02-14T11:31:35.985Z,85.55
2023-02-14T11:32:35.855Z,85.62
2023-02-14T11:33:36.058Z,85.45
2023-02-14T11:34:35.872Z,86.13
2023-02-14T11:35:35.814Z,85.72
2023-02-14T11:36:35.798Z,85.31
2023-02-14T11:37:35.787Z,85.66
2023-02-14T11:38:35.804Z,86.32
2023-02-14T11:39:35.805Z,86.83
2023-02-14T11:40:35.760Z,86.11
2023-02-14T11:41:35.754Z,86.38
2023-02-14T11:42:35.747Z,85.97
2023-02-14T11:43:35.714Z,86.03
2023-02-14T11:44:35.700Z,85.31
2023-02-14T11:45:35.739Z,84.75
2023-02-14T11:46:38.490Z,84.44
2023-02-14T11:47:36.739Z,84.03
2023-02-14T11:48:38.620Z,84.87
2023-02-14T11:49:35.643Z,85.91
2023-02-14T11:50:35.668Z,87.08
2023-02-14T11:51:35.624Z,87.56
2023-02-14T11:52:35.621Z,87.25
2023-02-14T11:53:35.594Z,87.15
2023-02-14T11:54:35.628Z,86.83
2023-02-14T11:55:35.580Z,87.35
2023-02-14T11:56:35.593Z,87.15
2023-02-14T11:57:35.564Z,86.79
2023-02-14T11:58:35.572Z,86.34
2023-02-14T11:59:35.543Z,86.03
2023-02-14T12:00:35.522Z,85.52
2023-02-14T12:01:35.575Z,85.70
2023-02-14T12:02:35.564Z,86.88
2023-02-14T12:03:35.518Z,87.29
2023-02-14T12:04:45.614Z,87.81
2023-02-14T12:05:36.488Z,87.70
2023-02-14T12:06:37.065Z,87.15
2023-02-14T12:07:35.485Z,87.15
2023-02-14T12:08:35.720Z,86.65
2023-02-14T12:09:35.444Z,86.18
2023-02-14T12:10:35.483Z,85.86
2023-02-14T12:11:35.432Z,85.91
2023-02-14T12:12:35.392Z,86.57
2023-02-14T12:13:35.426Z,87.70
2023-02-14T12:14:35.373Z,88.01
2023-02-14T12:15:35.359Z,87.87
2023-02-14T12:16:35.335Z,87.35
2023-02-14T12:17:35.344Z,86.90
2023-02-14T12:18:35.366Z,86.69
2023-02-14T12:19:35.296Z,86.38
2023-02-14T12:20:35.288Z,85.41
2023-02-14T12:21:35.269Z,85.62
2023-02-14T12:22:35.266Z,84.89
2023-02-14T12:23:35.256Z,85.10
2023-02-14T12:24:35.291Z,85.10
2023-02-14T12:25:35.225Z,84.86
2023-02-14T12:26:35.229Z,84.41
2023-02-14T12:27:35.670Z,83.78
2023-02-14T12:28:35.208Z,83.58
2023-02-14T12:29:35.235Z,83.37
2023-02-14T12:30:35.184Z,83.54
2023-02-14T12:31:35.624Z,83.03
2023-02-14T12:32:35.147Z,82.65
2023-02-14T12:33:35.123Z,83.31
2023-02-14T12:34:35.125Z,83.51
2023-02-14T12:35:35.149Z,83.17
2023-02-14T12:36:35.147Z,82.55
2023-02-14T12:37:35.091Z,82.62
2023-02-14T12:38:35.087Z,83.45
2023-02-14T12:39:35.116Z,83.76
2023-02-14T12:40:35.057Z,83.80
2023-02-14T12:41:35.058Z,84.79
2023-02-14T12:42:35.035Z,84.13
2023-02-14T12:43:35.012Z,83.31
2023-02-14T12:44:35.004Z,84.48
2023-02-14T12:45:35.005Z,84.34
2023-02-14T12:46:34.985Z,83.68
2023-02-14T12:47:35.008Z,83.33
2023-02-14T12:48:34.976Z,82.57
2023-02-14T12:49:34.944Z,82.26
2023-02-14T12:50:35.004Z,81.37
2023-02-14T12:51:34.930Z,81.37
2023-02-14T12:52:34.913Z,81.93